sensor_id;sensor_type;location;lat;lon;timestamp;P1;durP1;ratioP1;P2;durP2;ratioP2
38972;SDS011;25333;50.762;4.470;2022-09-29T00:00:43;5.35;;;3.22;;
38972;SDS011;25333;50.762;4.470;2022-09-29T00:03:08;4.07;;;3.10;;
38972;SDS011;25333;50.762;4.470;2022-09-29T00:05:34;4.38;;;3.08;;
38972;SDS011;25333;50.762;4.470;2022-09-29T00:07:59;4.20;;;3.27;;
38972;SDS011;25333;50.762;4.470;2022-09-29T00:10:25;3.77;;;2.90;;
38972;SDS011;25333;50.762;4.470;2022-09-29T00:15:21;5.22;;;3.13;;
38972;SDS011;25333;50.762;4.470;2022-09-29T00:17:47;3.27;;;2.67;;
38972;SDS011;25333;50.762;4.470;2022-09-29T00:20:12;6.13;;;3.30;;
38972;SDS011;25333;50.762;4.470;2022-09-29T00:22:48;6.18;;;3.83;;
38972;SDS011;25333;50.762;4.470;2022-09-29T00:25:14;5.80;;;3.60;;
38972;SDS011;25333;50.762;4.470;2022-09-29T00:27:40;3.20;;;2.43;;
38972;SDS011;25333;50.762;4.470;2022-09-29T00:30:10;3.85;;;2.60;;
38972;SDS011;25333;50.762;4.470;2022-09-29T00:32:36;6.20;;;2.95;;
38972;SDS011;25333;50.762;4.470;2022-09-29T00:35:02;3.43;;;3.10;;
38972;SDS011;25333;50.762;4.470;2022-09-29T00:37:28;3.60;;;2.73;;
38972;SDS011;25333;50.762;4.470;2022-09-29T00:39:53;5.50;;;3.08;;
38972;SDS011;25333;50.762;4.470;2022-09-29T00:42:19;3.83;;;2.93;;
38972;SDS011;25333;50.762;4.470;2022-09-29T00:47:30;4.13;;;2.35;;
38972;SDS011;25333;50.762;4.470;2022-09-29T00:52:56;3.22;;;2.63;;
38972;SDS011;25333;50.762;4.470;2022-09-29T00:55:30;3.30;;;2.23;;
38972;SDS011;25333;50.762;4.470;2022-09-29T00:58:02;3.90;;;1.77;;
38972;SDS011;25333;50.762;4.470;2022-09-29T01:00:51;5.45;;;2.80;;
38972;SDS011;25333;50.762;4.470;2022-09-29T01:03:18;4.07;;;2.78;;
38972;SDS011;25333;50.762;4.470;2022-09-29T01:05:53;3.90;;;2.78;;
38972;SDS011;25333;50.762;4.470;2022-09-29T01:08:48;3.67;;;2.65;;
38972;SDS011;25333;50.762;4.470;2022-09-29T01:11:21;3.67;;;2.33;;
38972;SDS011;25333;50.762;4.470;2022-09-29T01:13:47;3.45;;;1.98;;
38972;SDS011;25333;50.762;4.470;2022-09-29T01:16:14;4.97;;;2.75;;
38972;SDS011;25333;50.762;4.470;2022-09-29T01:18:41;2.50;;;2.20;;
38972;SDS011;25333;50.762;4.470;2022-09-29T01:21:15;4.43;;;2.30;;
38972;SDS011;25333;50.762;4.470;2022-09-29T01:29:41;4.78;;;2.42;;
38972;SDS011;25333;50.762;4.470;2022-09-29T01:35:40;3.53;;;2.00;;
38972;SDS011;25333;50.762;4.470;2022-09-29T01:43:05;2.90;;;1.60;;
38972;SDS011;25333;50.762;4.470;2022-09-29T01:45:57;5.28;;;2.15;;
38972;SDS011;25333;50.762;4.470;2022-09-29T01:48:28;3.53;;;1.92;;
38972;SDS011;25333;50.762;4.470;2022-09-29T01:50:57;5.13;;;2.15;;
38972;SDS011;25333;50.762;4.470;2022-09-29T01:53:40;2.92;;;1.77;;
38972;SDS011;25333;50.762;4.470;2022-09-29T01:56:14;3.95;;;1.70;;
38972;SDS011;25333;50.762;4.470;2022-09-29T01:58:57;3.50;;;2.50;;
38972;SDS011;25333;50.762;4.470;2022-09-29T02:01:36;2.58;;;1.55;;
38972;SDS011;25333;50.762;4.470;2022-09-29T02:04:10;3.53;;;2.30;;
38972;SDS011;25333;50.762;4.470;2022-09-29T02:06:47;3.70;;;1.67;;
38972;SDS011;25333;50.762;4.470;2022-09-29T02:09:22;3.08;;;1.75;;
38972;SDS011;25333;50.762;4.470;2022-09-29T02:11:52;3.00;;;2.03;;
38972;SDS011;25333;50.762;4.470;2022-09-29T02:14:22;2.33;;;1.67;;
38972;SDS011;25333;50.762;4.470;2022-09-29T02:17:03;2.75;;;1.92;;
38972;SDS011;25333;50.762;4.470;2022-09-29T02:19:49;4.38;;;2.78;;
38972;SDS011;25333;50.762;4.470;2022-09-29T02:22:16;2.92;;;1.90;;
38972;SDS011;25333;50.762;4.470;2022-09-29T02:24:42;4.15;;;2.42;;
38972;SDS011;25333;50.762;4.470;2022-09-29T02:27:09;4.13;;;2.00;;
38972;SDS011;25333;50.762;4.470;2022-09-29T02:29:35;5.25;;;1.88;;
38972;SDS011;25333;50.762;4.470;2022-09-29T02:32:02;3.33;;;2.38;;
38972;SDS011;25333;50.762;4.470;2022-09-29T02:34:30;4.35;;;2.42;;
38972;SDS011;25333;50.762;4.470;2022-09-29T02:37:01;4.10;;;1.73;;
38972;SDS011;25333;50.762;4.470;2022-09-29T02:42:24;3.85;;;2.25;;
38972;SDS011;25333;50.762;4.470;2022-09-29T02:45:15;5.07;;;2.38;;
38972;SDS011;25333;50.762;4.470;2022-09-29T02:47:57;4.03;;;2.03;;
38972;SDS011;25333;50.762;4.470;2022-09-29T02:58:29;4.47;;;2.25;;
38972;SDS011;25333;50.762;4.470;2022-09-29T03:01:02;4.13;;;2.20;;
38972;SDS011;25333;50.762;4.470;2022-09-29T03:03:29;2.90;;;1.83;;
38972;SDS011;25333;50.762;4.470;2022-09-29T03:05:55;2.67;;;1.50;;
38972;SDS011;25333;50.762;4.470;2022-09-29T03:08:20;3.72;;;2.13;;
38972;SDS011;25333;50.762;4.470;2022-09-29T03:10:46;3.93;;;2.70;;
38972;SDS011;25333;50.762;4.470;2022-09-29T03:13:12;3.03;;;2.28;;
38972;SDS011;25333;50.762;4.470;2022-09-29T03:15:37;3.07;;;2.10;;
38972;SDS011;25333;50.762;4.470;2022-09-29T03:18:03;3.13;;;2.17;;
38972;SDS011;25333;50.762;4.470;2022-09-29T03:20:28;3.50;;;2.10;;
38972;SDS011;25333;50.762;4.470;2022-09-29T03:22:55;4.53;;;2.83;;
38972;SDS011;25333;50.762;4.470;2022-09-29T03:25:21;3.50;;;2.28;;
38972;SDS011;25333;50.762;4.470;2022-09-29T03:27:48;3.85;;;2.65;;
38972;SDS011;25333;50.762;4.470;2022-09-29T03:30:15;4.10;;;2.83;;
38972;SDS011;25333;50.762;4.470;2022-09-29T03:32:41;4.90;;;2.60;;
38972;SDS011;25333;50.762;4.470;2022-09-29T03:35:08;5.13;;;2.75;;
38972;SDS011;25333;50.762;4.470;2022-09-29T03:37:34;3.97;;;2.72;;
38972;SDS011;25333;50.762;4.470;2022-09-29T03:40:00;5.63;;;2.50;;
38972;SDS011;25333;50.762;4.470;2022-09-29T03:42:26;3.95;;;2.30;;
38972;SDS011;25333;50.762;4.470;2022-09-29T03:44:56;3.28;;;2.10;;
38972;SDS011;25333;50.762;4.470;2022-09-29T03:47:21;2.47;;;1.60;;
38972;SDS011;25333;50.762;4.470;2022-09-29T03:49:47;3.38;;;2.15;;
38972;SDS011;25333;50.762;4.470;2022-09-29T03:52:13;4.33;;;2.43;;
38972;SDS011;25333;50.762;4.470;2022-09-29T03:54:39;5.30;;;2.58;;
38972;SDS011;25333;50.762;4.470;2022-09-29T03:57:04;3.75;;;2.38;;
38972;SDS011;25333;50.762;4.470;2022-09-29T03:59:30;4.30;;;2.50;;
38972;SDS011;25333;50.762;4.470;2022-09-29T04:01:55;3.25;;;2.22;;
38972;SDS011;25333;50.762;4.470;2022-09-29T04:04:22;4.18;;;2.47;;
38972;SDS011;25333;50.762;4.470;2022-09-29T04:06:47;4.20;;;2.42;;
38972;SDS011;25333;50.762;4.470;2022-09-29T04:09:13;3.80;;;2.33;;
38972;SDS011;25333;50.762;4.470;2022-09-29T04:11:39;3.60;;;2.47;;
38972;SDS011;25333;50.762;4.470;2022-09-29T04:14:04;3.50;;;2.67;;
38972;SDS011;25333;50.762;4.470;2022-09-29T04:16:30;6.03;;;2.77;;
38972;SDS011;25333;50.762;4.470;2022-09-29T04:18:56;4.47;;;3.13;;
38972;SDS011;25333;50.762;4.470;2022-09-29T04:21:21;5.23;;;3.10;;
38972;SDS011;25333;50.762;4.470;2022-09-29T04:23:47;3.28;;;2.67;;
38972;SDS011;25333;50.762;4.470;2022-09-29T04:26:13;4.50;;;2.78;;
38972;SDS011;25333;50.762;4.470;2022-09-29T04:28:39;4.13;;;2.97;;
38972;SDS011;25333;50.762;4.470;2022-09-29T04:31:06;3.72;;;2.90;;
38972;SDS011;25333;50.762;4.470;2022-09-29T04:33:32;3.57;;;2.40;;
38972;SDS011;25333;50.762;4.470;2022-09-29T04:35:58;3.88;;;2.47;;
38972;SDS011;25333;50.762;4.470;2022-09-29T04:38:24;3.10;;;2.38;;
38972;SDS011;25333;50.762;4.470;2022-09-29T04:40:50;3.03;;;2.15;;
38972;SDS011;25333;50.762;4.470;2022-09-29T04:43:16;3.40;;;2.70;;
38972;SDS011;25333;50.762;4.470;2022-09-29T04:45:41;3.75;;;2.70;;
38972;SDS011;25333;50.762;4.470;2022-09-29T04:48:08;3.88;;;2.63;;
38972;SDS011;25333;50.762;4.470;2022-09-29T04:50:34;3.05;;;2.47;;
38972;SDS011;25333;50.762;4.470;2022-09-29T04:53:05;3.95;;;2.70;;
38972;SDS011;25333;50.762;4.470;2022-09-29T04:55:38;4.35;;;2.67;;
38972;SDS011;25333;50.762;4.470;2022-09-29T04:58:06;2.73;;;2.23;;
38972;SDS011;25333;50.762;4.470;2022-09-29T05:00:31;6.37;;;2.63;;
38972;SDS011;25333;50.762;4.470;2022-09-29T05:02:57;5.35;;;2.78;;
38972;SDS011;25333;50.762;4.470;2022-09-29T05:05:24;3.92;;;2.95;;
38972;SDS011;25333;50.762;4.470;2022-09-29T05:07:49;3.20;;;2.87;;
38972;SDS011;25333;50.762;4.470;2022-09-29T05:10:15;4.05;;;2.60;;
38972;SDS011;25333;50.762;4.470;2022-09-29T05:12:46;4.13;;;2.83;;
38972;SDS011;25333;50.762;4.470;2022-09-29T05:15:15;3.30;;;2.70;;
38972;SDS011;25333;50.762;4.470;2022-09-29T05:17:41;5.32;;;3.55;;
38972;SDS011;25333;50.762;4.470;2022-09-29T05:20:07;4.55;;;2.92;;
38972;SDS011;25333;50.762;4.470;2022-09-29T05:22:33;3.95;;;2.95;;
38972;SDS011;25333;50.762;4.470;2022-09-29T05:24:58;4.83;;;2.80;;
38972;SDS011;25333;50.762;4.470;2022-09-29T05:27:24;4.95;;;2.97;;
38972;SDS011;25333;50.762;4.470;2022-09-29T05:29:49;5.03;;;2.97;;
38972;SDS011;25333;50.762;4.470;2022-09-29T05:32:15;4.30;;;2.65;;
38972;SDS011;25333;50.762;4.470;2022-09-29T05:34:41;6.28;;;3.72;;
38972;SDS011;25333;50.762;4.470;2022-09-29T05:37:07;5.68;;;2.92;;
38972;SDS011;25333;50.762;4.470;2022-09-29T05:39:33;4.55;;;2.97;;
38972;SDS011;25333;50.762;4.470;2022-09-29T05:42:08;6.50;;;2.80;;
38972;SDS011;25333;50.762;4.470;2022-09-29T05:44:40;4.30;;;3.13;;
38972;SDS011;25333;50.762;4.470;2022-09-29T05:47:06;4.43;;;3.50;;
38972;SDS011;25333;50.762;4.470;2022-09-29T05:49:31;4.50;;;3.20;;
38972;SDS011;25333;50.762;4.470;2022-09-29T05:51:59;4.38;;;3.53;;
38972;SDS011;25333;50.762;4.470;2022-09-29T05:54:25;4.28;;;3.13;;
38972;SDS011;25333;50.762;4.470;2022-09-29T05:56:51;5.43;;;3.67;;
38972;SDS011;25333;50.762;4.470;2022-09-29T05:59:17;6.85;;;3.35;;
38972;SDS011;25333;50.762;4.470;2022-09-29T06:01:42;5.90;;;3.47;;
38972;SDS011;25333;50.762;4.470;2022-09-29T06:04:08;5.47;;;3.70;;
38972;SDS011;25333;50.762;4.470;2022-09-29T06:06:34;4.82;;;4.15;;
38972;SDS011;25333;50.762;4.470;2022-09-29T06:09:01;5.38;;;3.75;;
38972;SDS011;25333;50.762;4.470;2022-09-29T06:11:27;5.50;;;4.25;;
38972;SDS011;25333;50.762;4.470;2022-09-29T06:13:56;5.50;;;4.43;;
38972;SDS011;25333;50.762;4.470;2022-09-29T06:16:23;5.28;;;3.80;;
38972;SDS011;25333;50.762;4.470;2022-09-29T06:18:53;6.95;;;4.50;;
38972;SDS011;25333;50.762;4.470;2022-09-29T06:21:20;6.88;;;3.42;;
38972;SDS011;25333;50.762;4.470;2022-09-29T06:23:50;6.22;;;4.40;;
38972;SDS011;25333;50.762;4.470;2022-09-29T06:26:18;5.75;;;4.88;;
38972;SDS011;25333;50.762;4.470;2022-09-29T06:29:01;6.00;;;4.33;;
38972;SDS011;25333;50.762;4.470;2022-09-29T06:31:28;4.55;;;3.40;;
38972;SDS011;25333;50.762;4.470;2022-09-29T06:33:58;5.93;;;3.63;;
38972;SDS011;25333;50.762;4.470;2022-09-29T06:36:31;4.75;;;3.58;;
38972;SDS011;25333;50.762;4.470;2022-09-29T06:39:19;5.75;;;3.80;;
38972;SDS011;25333;50.762;4.470;2022-09-29T06:41:45;6.25;;;4.22;;
38972;SDS011;25333;50.762;4.470;2022-09-29T06:44:20;5.73;;;3.90;;
38972;SDS011;25333;50.762;4.470;2022-09-29T06:46:53;5.10;;;3.97;;
38972;SDS011;25333;50.762;4.470;2022-09-29T06:49:22;5.40;;;3.88;;
38972;SDS011;25333;50.762;4.470;2022-09-29T06:51:48;6.00;;;3.95;;
38972;SDS011;25333;50.762;4.470;2022-09-29T06:54:17;6.07;;;4.95;;
38972;SDS011;25333;50.762;4.470;2022-09-29T06:56:45;7.03;;;5.13;;
38972;SDS011;25333;50.762;4.470;2022-09-29T06:59:14;7.00;;;5.90;;
38972;SDS011;25333;50.762;4.470;2022-09-29T07:01:40;6.47;;;4.35;;
38972;SDS011;25333;50.762;4.470;2022-09-29T07:04:12;7.57;;;5.50;;
38972;SDS011;25333;50.762;4.470;2022-09-29T07:06:38;7.03;;;5.63;;
38972;SDS011;25333;50.762;4.470;2022-09-29T07:09:03;10.90;;;5.87;;
38972;SDS011;25333;50.762;4.470;2022-09-29T07:11:29;8.18;;;4.80;;
38972;SDS011;25333;50.762;4.470;2022-09-29T07:13:55;8.13;;;5.57;;
38972;SDS011;25333;50.762;4.470;2022-09-29T07:16:20;7.25;;;5.00;;
38972;SDS011;25333;50.762;4.470;2022-09-29T07:18:49;8.73;;;5.40;;
38972;SDS011;25333;50.762;4.470;2022-09-29T07:21:16;7.53;;;4.90;;
38972;SDS011;25333;50.762;4.470;2022-09-29T07:23:42;7.40;;;5.38;;
38972;SDS011;25333;50.762;4.470;2022-09-29T07:26:09;10.20;;;5.60;;
38972;SDS011;25333;50.762;4.470;2022-09-29T07:28:36;6.95;;;5.05;;
38972;SDS011;25333;50.762;4.470;2022-09-29T07:31:08;7.28;;;4.82;;
38972;SDS011;25333;50.762;4.470;2022-09-29T07:33:36;7.22;;;5.55;;
38972;SDS011;25333;50.762;4.470;2022-09-29T07:36:01;10.18;;;5.72;;
38972;SDS011;25333;50.762;4.470;2022-09-29T07:38:28;8.37;;;5.93;;
38972;SDS011;25333;50.762;4.470;2022-09-29T07:41:01;7.78;;;5.07;;
38972;SDS011;25333;50.762;4.470;2022-09-29T07:43:28;8.98;;;5.53;;
38972;SDS011;25333;50.762;4.470;2022-09-29T07:45:54;11.40;;;6.38;;
38972;SDS011;25333;50.762;4.470;2022-09-29T07:48:20;10.35;;;5.40;;
38972;SDS011;25333;50.762;4.470;2022-09-29T07:50:46;8.68;;;5.63;;
38972;SDS011;25333;50.762;4.470;2022-09-29T07:53:12;10.37;;;6.03;;
38972;SDS011;25333;50.762;4.470;2022-09-29T07:55:38;9.68;;;5.50;;
38972;SDS011;25333;50.762;4.470;2022-09-29T07:58:04;8.07;;;5.20;;
38972;SDS011;25333;50.762;4.470;2022-09-29T08:00:30;10.50;;;5.75;;
38972;SDS011;25333;50.762;4.470;2022-09-29T08:03:03;13.93;;;5.17;;
38972;SDS011;25333;50.762;4.470;2022-09-29T08:05:33;9.32;;;5.60;;
38972;SDS011;25333;50.762;4.470;2022-09-29T08:08:00;7.95;;;5.30;;
38972;SDS011;25333;50.762;4.470;2022-09-29T08:10:28;8.75;;;5.40;;
38972;SDS011;25333;50.762;4.470;2022-09-29T08:12:55;9.25;;;4.97;;
38972;SDS011;25333;50.762;4.470;2022-09-29T08:15:21;6.73;;;5.10;;
38972;SDS011;25333;50.762;4.470;2022-09-29T08:17:47;6.55;;;4.10;;
38972;SDS011;25333;50.762;4.470;2022-09-29T08:20:15;8.55;;;5.47;;
38972;SDS011;25333;50.762;4.470;2022-09-29T08:22:41;7.17;;;4.83;;
38972;SDS011;25333;50.762;4.470;2022-09-29T08:25:07;6.05;;;4.22;;
38972;SDS011;25333;50.762;4.470;2022-09-29T08:27:32;8.77;;;4.97;;
38972;SDS011;25333;50.762;4.470;2022-09-29T08:29:58;8.52;;;4.93;;
38972;SDS011;25333;50.762;4.470;2022-09-29T08:32:24;9.48;;;4.95;;
38972;SDS011;25333;50.762;4.470;2022-09-29T08:34:50;7.37;;;4.67;;
38972;SDS011;25333;50.762;4.470;2022-09-29T08:37:15;7.88;;;4.90;;
38972;SDS011;25333;50.762;4.470;2022-09-29T08:39:42;7.22;;;5.70;;
38972;SDS011;25333;50.762;4.470;2022-09-29T08:45:21;7.63;;;5.13;;
38972;SDS011;25333;50.762;4.470;2022-09-29T08:47:53;8.68;;;5.18;;
38972;SDS011;25333;50.762;4.470;2022-09-29T08:50:36;6.47;;;4.63;;
38972;SDS011;25333;50.762;4.470;2022-09-29T08:53:08;5.32;;;3.97;;
38972;SDS011;25333;50.762;4.470;2022-09-29T08:58:02;10.35;;;4.50;;
38972;SDS011;25333;50.762;4.470;2022-09-29T09:00:41;7.53;;;5.00;;
38972;SDS011;25333;50.762;4.470;2022-09-29T09:05:59;6.63;;;4.90;;
38972;SDS011;25333;50.762;4.470;2022-09-29T09:14:43;7.18;;;4.40;;
38972;SDS011;25333;50.762;4.470;2022-09-29T09:23:00;7.40;;;3.67;;
38972;SDS011;25333;50.762;4.470;2022-09-29T09:25:36;5.03;;;3.22;;
38972;SDS011;25333;50.762;4.470;2022-09-29T09:28:10;6.35;;;3.70;;
38972;SDS011;25333;50.762;4.470;2022-09-29T09:30:41;6.13;;;3.63;;
38972;SDS011;25333;50.762;4.470;2022-09-29T09:33:31;6.25;;;3.40;;
38972;SDS011;25333;50.762;4.470;2022-09-29T09:41:23;4.68;;;2.50;;
38972;SDS011;25333;50.762;4.470;2022-09-29T09:44:05;4.13;;;2.25;;
38972;SDS011;25333;50.762;4.470;2022-09-29T09:46:48;4.30;;;2.60;;
38972;SDS011;25333;50.762;4.470;2022-09-29T09:49:22;6.43;;;2.45;;
38972;SDS011;25333;50.762;4.470;2022-09-29T09:52:03;6.20;;;2.95;;
38972;SDS011;25333;50.762;4.470;2022-09-29T09:54:50;4.38;;;2.60;;
38972;SDS011;25333;50.762;4.470;2022-09-29T10:02:34;6.40;;;3.15;;
38972;SDS011;25333;50.762;4.470;2022-09-29T10:05:08;3.88;;;2.15;;
38972;SDS011;25333;50.762;4.470;2022-09-29T10:07:37;4.75;;;2.63;;
38972;SDS011;25333;50.762;4.470;2022-09-29T10:10:03;3.92;;;2.85;;
38972;SDS011;25333;50.762;4.470;2022-09-29T10:12:38;7.45;;;2.75;;
38972;SDS011;25333;50.762;4.470;2022-09-29T10:15:04;3.75;;;2.70;;
38972;SDS011;25333;50.762;4.470;2022-09-29T10:17:43;3.70;;;2.20;;
38972;SDS011;25333;50.762;4.470;2022-09-29T10:20:10;4.30;;;2.50;;
38972;SDS011;25333;50.762;4.470;2022-09-29T10:22:36;3.53;;;2.40;;
38972;SDS011;25333;50.762;4.470;2022-09-29T10:25:07;5.63;;;2.72;;
38972;SDS011;25333;50.762;4.470;2022-09-29T10:27:48;5.28;;;2.30;;
38972;SDS011;25333;50.762;4.470;2022-09-29T10:30:32;5.03;;;2.47;;
38972;SDS011;25333;50.762;4.470;2022-09-29T10:33:00;4.03;;;2.30;;
38972;SDS011;25333;50.762;4.470;2022-09-29T10:35:36;5.78;;;2.50;;
38972;SDS011;25333;50.762;4.470;2022-09-29T10:38:04;5.53;;;2.75;;
38972;SDS011;25333;50.762;4.470;2022-09-29T10:40:32;7.35;;;2.53;;
38972;SDS011;25333;50.762;4.470;2022-09-29T10:43:16;5.97;;;2.55;;
38972;SDS011;25333;50.762;4.470;2022-09-29T10:45:51;5.60;;;3.15;;
38972;SDS011;25333;50.762;4.470;2022-09-29T10:48:22;7.30;;;3.45;;
38972;SDS011;25333;50.762;4.470;2022-09-29T10:50:54;5.13;;;2.92;;
38972;SDS011;25333;50.762;4.470;2022-09-29T10:53:33;6.70;;;2.25;;
38972;SDS011;25333;50.762;4.470;2022-09-29T10:56:17;3.90;;;2.28;;
38972;SDS011;25333;50.762;4.470;2022-09-29T10:58:57;2.83;;;1.58;;
38972;SDS011;25333;50.762;4.470;2022-09-29T11:01:25;3.33;;;1.27;;
38972;SDS011;25333;50.762;4.470;2022-09-29T11:03:55;2.08;;;0.98;;
38972;SDS011;25333;50.762;4.470;2022-09-29T11:06:36;2.00;;;1.27;;
38972;SDS011;25333;50.762;4.470;2022-09-29T11:09:05;2.65;;;1.10;;
38972;SDS011;25333;50.762;4.470;2022-09-29T11:11:53;2.75;;;1.20;;
38972;SDS011;25333;50.762;4.470;2022-09-29T11:17:02;1.55;;;1.10;;
38972;SDS011;25333;50.762;4.470;2022-09-29T11:19:54;3.30;;;1.55;;
38972;SDS011;25333;50.762;4.470;2022-09-29T11:35:44;2.25;;;0.95;;
38972;SDS011;25333;50.762;4.470;2022-09-29T11:47:05;1.70;;;0.82;;
38972;SDS011;25333;50.762;4.470;2022-09-29T11:55:27;2.75;;;0.68;;
38972;SDS011;25333;50.762;4.470;2022-09-29T11:58:00;2.38;;;0.75;;
38972;SDS011;25333;50.762;4.470;2022-09-29T12:03:43;2.42;;;0.90;;
38972;SDS011;25333;50.762;4.470;2022-09-29T12:06:15;2.17;;;0.80;;
38972;SDS011;25333;50.762;4.470;2022-09-29T12:17:17;1.10;;;0.52;;
38972;SDS011;25333;50.762;4.470;2022-09-29T12:19:44;1.30;;;0.40;;
38972;SDS011;25333;50.762;4.470;2022-09-29T12:22:16;1.92;;;0.70;;
38972;SDS011;25333;50.762;4.470;2022-09-29T12:24:50;2.55;;;0.68;;
38972;SDS011;25333;50.762;4.470;2022-09-29T12:27:27;1.52;;;0.50;;
38972;SDS011;25333;50.762;4.470;2022-09-29T12:38:17;2.70;;;0.57;;
38972;SDS011;25333;50.762;4.470;2022-09-29T12:43:40;2.75;;;0.60;;
38972;SDS011;25333;50.762;4.470;2022-09-29T12:46:36;2.25;;;0.80;;
38972;SDS011;25333;50.762;4.470;2022-09-29T12:52:02;2.45;;;0.68;;
38972;SDS011;25333;50.762;4.470;2022-09-29T12:57:13;2.10;;;1.13;;
38972;SDS011;25333;50.762;4.470;2022-09-29T13:27:53;0.82;;;0.30;;
38972;SDS011;25333;50.762;4.470;2022-09-29T13:30:28;1.67;;;0.43;;
38972;SDS011;25333;50.762;4.470;2022-09-29T13:33:02;1.27;;;0.35;;
38972;SDS011;25333;50.762;4.470;2022-09-29T13:35:41;1.70;;;0.40;;
38972;SDS011;25333;50.762;4.470;2022-09-29T13:38:13;1.02;;;0.30;;
38972;SDS011;25333;50.762;4.470;2022-09-29T13:57:03;2.38;;;0.75;;
38972;SDS011;25333;50.762;4.470;2022-09-29T14:04:52;2.55;;;0.50;;
38972;SDS011;25333;50.762;4.470;2022-09-29T14:07:36;0.65;;;0.30;;
38972;SDS011;25333;50.762;4.470;2022-09-29T14:10:19;1.43;;;0.40;;
38972;SDS011;25333;50.762;4.470;2022-09-29T14:13:12;6.78;;;1.00;;
38972;SDS011;25333;50.762;4.470;2022-09-29T14:18:38;1.33;;;0.32;;
38972;SDS011;25333;50.762;4.470;2022-09-29T14:21:12;2.83;;;0.60;;
38972;SDS011;25333;50.762;4.470;2022-09-29T14:23:58;0.75;;;0.32;;
38972;SDS011;25333;50.762;4.470;2022-09-29T14:29:22;1.33;;;0.32;;
38972;SDS011;25333;50.762;4.470;2022-09-29T14:31:52;3.05;;;0.47;;
38972;SDS011;25333;50.762;4.470;2022-09-29T14:34:21;1.73;;;0.50;;
38972;SDS011;25333;50.762;4.470;2022-09-29T14:36:50;1.55;;;0.30;;
38972;SDS011;25333;50.762;4.470;2022-09-29T14:39:18;0.82;;;0.30;;
38972;SDS011;25333;50.762;4.470;2022-09-29T14:41:46;1.02;;;0.30;;
38972;SDS011;25333;50.762;4.470;2022-09-29T14:47:06;1.00;;;0.40;;
38972;SDS011;25333;50.762;4.470;2022-09-29T14:50:13;1.15;;;0.30;;
38972;SDS011;25333;50.762;4.470;2022-09-29T15:03:53;1.27;;;0.90;;
38972;SDS011;25333;50.762;4.470;2022-09-29T15:06:30;0.77;;;0.30;;
38972;SDS011;25333;50.762;4.470;2022-09-29T15:08:56;2.40;;;0.88;;
38972;SDS011;25333;50.762;4.470;2022-09-29T15:11:55;1.98;;;0.75;;
38972;SDS011;25333;50.762;4.470;2022-09-29T15:14:27;3.38;;;0.90;;
38972;SDS011;25333;50.762;4.470;2022-09-29T15:25:28;0.95;;;0.30;;
38972;SDS011;25333;50.762;4.470;2022-09-29T15:27:59;1.33;;;0.50;;
38972;SDS011;25333;50.762;4.470;2022-09-29T15:30:27;1.73;;;0.60;;
38972;SDS011;25333;50.762;4.470;2022-09-29T15:33:01;1.55;;;0.52;;
38972;SDS011;25333;50.762;4.470;2022-09-29T15:35:35;2.67;;;0.88;;
38972;SDS011;25333;50.762;4.470;2022-09-29T15:40:48;1.58;;;0.60;;
38972;SDS011;25333;50.762;4.470;2022-09-29T15:43:21;1.00;;;0.40;;
38972;SDS011;25333;50.762;4.470;2022-09-29T15:45:59;1.88;;;0.63;;
38972;SDS011;25333;50.762;4.470;2022-09-29T15:48:29;3.45;;;0.65;;
38972;SDS011;25333;50.762;4.470;2022-09-29T15:50:55;3.50;;;0.80;;
38972;SDS011;25333;50.762;4.470;2022-09-29T15:53:22;2.45;;;0.93;;
38972;SDS011;25333;50.762;4.470;2022-09-29T15:55:50;1.75;;;0.93;;
38972;SDS011;25333;50.762;4.470;2022-09-29T16:01:03;1.30;;;0.60;;
38972;SDS011;25333;50.762;4.470;2022-09-29T16:06:18;1.27;;;0.73;;
38972;SDS011;25333;50.762;4.470;2022-09-29T16:08:46;4.05;;;1.70;;
38972;SDS011;25333;50.762;4.470;2022-09-29T16:11:40;3.95;;;2.08;;
38972;SDS011;25333;50.762;4.470;2022-09-29T16:14:24;4.53;;;2.38;;
38972;SDS011;25333;50.762;4.470;2022-09-29T16:16:52;3.10;;;1.77;;
38972;SDS011;25333;50.762;4.470;2022-09-29T16:19:22;2.38;;;1.30;;
38972;SDS011;25333;50.762;4.470;2022-09-29T16:21:58;2.65;;;1.30;;
38972;SDS011;25333;50.762;4.470;2022-09-29T16:24:28;2.55;;;1.08;;
38972;SDS011;25333;50.762;4.470;2022-09-29T16:26:55;2.45;;;1.02;;
38972;SDS011;25333;50.762;4.470;2022-09-29T16:29:30;2.55;;;1.02;;
38972;SDS011;25333;50.762;4.470;2022-09-29T16:31:57;2.03;;;1.00;;
38972;SDS011;25333;50.762;4.470;2022-09-29T16:34:26;1.70;;;0.97;;
38972;SDS011;25333;50.762;4.470;2022-09-29T16:37:01;2.73;;;1.10;;
38972;SDS011;25333;50.762;4.470;2022-09-29T16:39:50;3.60;;;1.55;;
38972;SDS011;25333;50.762;4.470;2022-09-29T16:42:23;2.08;;;1.35;;
38972;SDS011;25333;50.762;4.470;2022-09-29T16:44:51;3.00;;;1.63;;
38972;SDS011;25333;50.762;4.470;2022-09-29T16:47:22;3.92;;;1.58;;
38972;SDS011;25333;50.762;4.470;2022-09-29T16:49:56;2.77;;;1.80;;
38972;SDS011;25333;50.762;4.470;2022-09-29T16:52:44;1.88;;;1.10;;
38972;SDS011;25333;50.762;4.470;2022-09-29T16:57:53;3.10;;;1.20;;
38972;SDS011;25333;50.762;4.470;2022-09-29T17:00:29;2.00;;;0.90;;
38972;SDS011;25333;50.762;4.470;2022-09-29T17:02:55;2.72;;;1.15;;
38972;SDS011;25333;50.762;4.470;2022-09-29T17:05:29;3.60;;;1.20;;
38972;SDS011;25333;50.762;4.470;2022-09-29T17:08:00;1.85;;;1.25;;
38972;SDS011;25333;50.762;4.470;2022-09-29T17:10:26;2.93;;;1.37;;
38972;SDS011;25333;50.762;4.470;2022-09-29T17:12:52;3.50;;;1.92;;
38972;SDS011;25333;50.762;4.470;2022-09-29T17:15:19;2.67;;;1.52;;
38972;SDS011;25333;50.762;4.470;2022-09-29T17:17:46;1.90;;;1.40;;
38972;SDS011;25333;50.762;4.470;2022-09-29T17:20:14;3.15;;;1.38;;
38972;SDS011;25333;50.762;4.470;2022-09-29T17:22:42;2.63;;;1.33;;
38972;SDS011;25333;50.762;4.470;2022-09-29T17:25:09;2.33;;;1.25;;
38972;SDS011;25333;50.762;4.470;2022-09-29T17:27:36;3.35;;;1.50;;
38972;SDS011;25333;50.762;4.470;2022-09-29T17:30:21;4.53;;;1.80;;
38972;SDS011;25333;50.762;4.470;2022-09-29T17:32:50;4.72;;;1.52;;
38972;SDS011;25333;50.762;4.470;2022-09-29T17:35:18;1.40;;;1.05;;
38972;SDS011;25333;50.762;4.470;2022-09-29T17:37:46;2.30;;;1.50;;
38972;SDS011;25333;50.762;4.470;2022-09-29T17:40:24;3.38;;;1.30;;
38972;SDS011;25333;50.762;4.470;2022-09-29T17:42:52;3.70;;;1.75;;
38972;SDS011;25333;50.762;4.470;2022-09-29T17:45:19;2.45;;;1.30;;
38972;SDS011;25333;50.762;4.470;2022-09-29T17:47:46;3.05;;;1.30;;
38972;SDS011;25333;50.762;4.470;2022-09-29T17:50:23;3.30;;;1.83;;
38972;SDS011;25333;50.762;4.470;2022-09-29T17:52:55;3.00;;;1.23;;
38972;SDS011;25333;50.762;4.470;2022-09-29T17:55:24;2.53;;;1.40;;
38972;SDS011;25333;50.762;4.470;2022-09-29T17:57:51;2.13;;;1.45;;
38972;SDS011;25333;50.762;4.470;2022-09-29T18:00:31;3.55;;;1.83;;
38972;SDS011;25333;50.762;4.470;2022-09-29T18:03:01;3.47;;;1.48;;
38972;SDS011;25333;50.762;4.470;2022-09-29T18:05:27;2.35;;;1.45;;
38972;SDS011;25333;50.762;4.470;2022-09-29T18:07:54;2.92;;;1.30;;
38972;SDS011;25333;50.762;4.470;2022-09-29T18:10:27;2.38;;;1.58;;
38972;SDS011;25333;50.762;4.470;2022-09-29T18:12:55;2.55;;;1.58;;
38972;SDS011;25333;50.762;4.470;2022-09-29T18:15:21;3.53;;;1.80;;
38972;SDS011;25333;50.762;4.470;2022-09-29T18:17:46;5.53;;;2.40;;
38972;SDS011;25333;50.762;4.470;2022-09-29T18:22:42;3.30;;;2.55;;
38972;SDS011;25333;50.762;4.470;2022-09-29T18:25:10;5.57;;;2.27;;
38972;SDS011;25333;50.762;4.470;2022-09-29T18:27:36;5.25;;;2.47;;
38972;SDS011;25333;50.762;4.470;2022-09-29T18:32:48;6.00;;;3.13;;
38972;SDS011;25333;50.762;4.470;2022-09-29T18:35:16;2.53;;;2.00;;
38972;SDS011;25333;50.762;4.470;2022-09-29T18:37:45;3.17;;;2.08;;
38972;SDS011;25333;50.762;4.470;2022-09-29T18:40:10;4.05;;;1.98;;
38972;SDS011;25333;50.762;4.470;2022-09-29T18:42:40;3.17;;;2.10;;
38972;SDS011;25333;50.762;4.470;2022-09-29T18:45:11;3.38;;;2.10;;